Time;durP1;ratioP1;P1;durP2;ratioP2;P2;SDS_P1;SDS_P2;PMS_P1;PMS_P2;Temp;Humidity;BMP_temperature;BMP_pressure;BME280_temperature;BME280_humidity;BME280_pressure;Samples;Min_cycle;Max_cycle;Signal;HPM_P1;HPM_P2
2023/05/24 00:00:52;;;;;;;;;;;20.70;54.60;;;;;;10170782;28;94422;-63
2023/05/24 00:05:54;;;;;;;;;;;20.70;54.70;;;;;;10171486;28;93799;-64
2023/05/24 00:10:55;;;;;;;;;;;20.70;54.70;;;;;;10171018;28;94652;-63
2023/05/24 00:15:57;;;;;;;;;;;20.70;54.60;;;;;;10170223;28;93543;-63
2023/05/24 00:20:59;;;;;;;;;;;20.70;54.60;;;;;;10171110;28;92889;-64
2023/05/24 00:26:04;;;;;;;;;;;20.70;54.60;;;;;;10169693;28;94505;-63
2023/05/24 00:31:07;;;;;;;;;;;20.70;54.50;;;;;;10169474;28;94065;-64
2023/05/24 00:36:09;;;;;;;;;;;20.70;54.60;;;;;;10150818;28;96839;-64
2023/05/24 00:41:10;;;;;;;;;;;20.70;54.50;;;;;;10168198;28;94045;-64
2023/05/24 00:46:25;;;;;;;;;;;20.70;54.50;;;;;;10169617;28;94426;-64
2023/05/24 00:51:28;;;;;;;;;;;20.70;54.50;;;;;;10168364;28;94302;-63
2023/05/24 00:56:30;;;;;;;;;;;20.70;54.40;;;;;;10168550;28;93472;-64
2023/05/24 01:01:32;;;;;;;;;;;20.70;54.40;;;;;;10168694;28;94625;-64
2023/05/24 01:06:43;;;;;;;;;;;20.70;54.40;;;;;;10168672;28;93417;-64
2023/05/24 01:12:18;;;;;;;;;;;20.70;54.30;;;;;;10152819;28;92716;-64
2023/05/24 01:17:19;;;;;;;;;;;20.60;54.30;;;;;;10114687;28;93523;-63
2023/05/24 01:22:41;;;;;;;;;;;20.60;54.30;;;;;;10168837;28;94563;-64
2023/05/24 01:27:43;;;;;;;;;;;20.60;54.30;;;;;;10165634;28;95864;-64
2023/05/24 01:32:45;;;;;;;;;;;20.60;54.20;;;;;;10150301;28;93518;-64
2023/05/24 01:37:47;;;;;;;;;;;20.60;54.30;;;;;;10168216;28;94251;-63
2023/05/24 01:42:58;;;;;;;;;;;20.60;54.30;;;;;;10168136;28;94490;-64
2023/05/24 01:48:00;;;;;;;;;;;20.60;54.20;;;;;;10167097;28;94458;-64
2023/05/24 01:53:05;;;;;;;;;;;20.60;54.30;;;;;;10167743;28;93130;-64
2023/05/24 01:58:08;;;;;;;;;;;20.50;54.20;;;;;;10150406;28;93575;-64
2023/05/24 02:03:12;;;;;;;;;;;20.50;54.20;;;;;;10168428;28;93743;-64
2023/05/24 02:08:14;;;;;;;;;;;20.50;54.20;;;;;;10150276;28;94754;-64
2023/05/24 02:13:16;;;;;;;;;;;20.50;54.20;;;;;;10166761;28;93563;-64
2023/05/24 02:18:18;;;;;;;;;;;20.50;54.20;;;;;;10164768;28;96805;-64
2023/05/24 02:23:20;;;;;;;;;;;20.50;54.20;;;;;;10166692;28;93503;-63
2023/05/24 02:28:22;;;;;;;;;;;20.50;54.20;;;;;;10167247;28;94493;-64
2023/05/24 02:33:24;;;;;;;;;;;20.40;54.20;;;;;;10165606;28;93727;-64
2023/05/24 02:38:26;;;;;;;;;;;20.40;54.10;;;;;;10149642;28;94507;-64
2023/05/24 02:43:28;;;;;;;;;;;20.40;54.10;;;;;;10166595;28;94868;-64
2023/05/24 02:48:31;;;;;;;;;;;20.40;54.20;;;;;;10148960;28;94850;-64
2023/05/24 02:53:33;;;;;;;;;;;20.40;54.10;;;;;;10173538;28;93744;-64
2023/05/24 02:58:39;;;;;;;;;;;20.40;54.20;;;;;;10173661;28;94640;-63
2023/05/24 03:03:41;;;;;;;;;;;20.30;54.20;;;;;;10155846;28;94491;-63
2023/05/24 03:08:43;;;;;;;;;;;20.30;54.10;;;;;;10137641;28;96851;-63
2023/05/24 03:13:45;;;;;;;;;;;20.30;55.10;;;;;;10173668;28;94469;-63
2023/05/24 03:18:49;;;;;;;;;;;20.30;54.20;;;;;;10171909;28;93563;-64
2023/05/24 03:23:51;;;;;;;;;;;20.30;54.20;;;;;;10173308;28;93837;-63
2023/05/24 03:28:53;;;;;;;;;;;20.30;54.20;;;;;;10172113;28;94056;-64
2023/05/24 03:33:55;;;;;;;;;;;20.30;54.30;;;;;;10172117;28;95043;-63
2023/05/24 03:38:57;;;;;;;;;;;20.30;54.30;;;;;;10172330;28;94535;-64
2023/05/24 03:43:59;;;;;;;;;;;20.30;54.30;;;;;;10171688;28;93742;-63
2023/05/24 05:07:24;;;;;;;;;;;20.20;54.20;;;;;;10245717;28;95964;-64
2023/05/24 05:12:25;;;;;;;;;;;20.20;54.30;;;;;;10248203;28;94650;-63
2023/05/24 05:17:27;;;;;;;;;;;20.20;54.40;;;;;;10249398;28;93625;-65
2023/05/24 05:22:29;;;;;;;;;;;20.20;55.10;;;;;;10248282;28;93986;-65
2023/05/24 05:27:31;;;;;;;;;;;20.20;55.80;;;;;;10247754;28;93431;-65
2023/05/24 05:32:33;;;;;;;;;;;20.20;55.60;;;;;;10248366;28;94256;-65
2023/05/24 05:37:35;;;;;;;;;;;20.20;55.40;;;;;;10248140;28;94463;-65
2023/05/24 05:42:37;;;;;;;;;;;20.10;55.30;;;;;;10230361;28;92727;-65
2023/05/24 05:47:39;;;;;;;;;;;20.10;55.40;;;;;;10229915;28;93627;-66
2023/05/24 05:52:41;;;;;;;;;;;20.10;55.40;;;;;;10247094;28;94406;-65
2023/05/24 05:57:42;;;;;;;;;;;20.10;55.50;;;;;;10244840;28;96840;-65
2023/05/24 06:02:44;;;;;;;;;;;20.10;55.50;;;;;;10245736;28;94536;-65
2023/05/24 06:07:46;;;;;;;;;;;20.10;55.40;;;;;;10246781;28;93803;-66
2023/05/24 06:12:48;;;;;;;;;;;20.10;55.30;;;;;;10246927;28;94523;-66
2023/05/24 06:17:51;;;;;;;;;;;20.20;55.10;;;;;;10247216;28;94468;-65
2023/05/24 06:22:54;;;;;;;;;;;20.20;55.00;;;;;;10246509;28;92993;-65
2023/05/24 06:27:55;;;;;;;;;;;20.20;54.80;;;;;;10253554;28;93516;-66
2023/05/24 06:32:57;;;;;;;;;;;20.20;54.80;;;;;;10254514;28;93731;-66
2023/05/24 06:37:59;;;;;;;;;;;20.20;54.80;;;;;;10252092;28;93910;-66
2023/05/24 06:43:01;;;;;;;;;;;20.20;54.80;;;;;;10253537;28;92419;-65
2023/05/24 06:48:03;;;;;;;;;;;20.20;54.80;;;;;;10250078;28;95810;-66
2023/05/24 06:53:05;;;;;;;;;;;20.20;54.80;;;;;;10234567;28;94453;-65
2023/05/24 06:58:13;;;;;;;;;;;20.20;54.70;;;;;;10253046;28;93440;-65
2023/05/24 07:03:14;;;;;;;;;;;20.20;54.70;;;;;;10251911;28;94532;-65
2023/05/24 07:08:16;;;;;;;;;;;20.20;54.60;;;;;;10252275;28;93524;-65
2023/05/24 07:13:18;;;;;;;;;;;20.30;54.50;;;;;;10252322;28;94305;-65
2023/05/24 07:18:19;;;;;;;;;;;20.30;54.50;;;;;;10252171;28;93499;-65
2023/05/24 07:23:21;;;;;;;;;;;20.30;54.50;;;;;;10253340;28;93983;-65
2023/05/24 07:28:23;;;;;;;;;;;20.30;55.50;;;;;;10251912;28;93851;-65
2023/05/24 07:33:24;;;;;;;;;;;20.30;54.40;;;;;;10233064;28;94152;-65
2023/05/24 07:38:28;;;;;;;;;;;20.30;54.50;;;;;;10230326;28;96620;-65
2023/05/24 07:43:29;;;;;;;;;;;20.30;54.40;;;;;;10251131;28;94419;-66
2023/05/24 07:48:31;;;;;;;;;;;20.30;54.40;;;;;;10250590;28;94977;-65
2023/05/24 07:53:33;;;;;;;;;;;20.40;54.40;;;;;;10251799;28;96159;-65
2023/05/24 07:58:35;;;;;;;;;;;20.40;54.40;;;;;;10250464;28;94655;-66
2023/05/24 08:03:38;;;;;;;;;;;20.40;54.40;;;;;;10250414;28;94954;-66
2023/05/24 08:08:40;;;;;;;;;;;20.40;54.30;;;;;;10250895;28;93963;-65
2023/05/24 08:13:42;;;;;;;;;;;20.40;54.40;;;;;;10233297;28;92694;-65
2023/05/24 08:18:44;;;;;;;;;;;20.40;54.40;;;;;;10250466;28;94489;-66
2023/05/24 08:23:46;;;;;;;;;;;20.40;54.40;;;;;;10250439;28;93645;-66
2023/05/24 08:28:48;;;;;;;;;;;20.40;54.40;;;;;;10230281;28;96778;-65
2023/05/24 08:33:50;;;;;;;;;;;20.40;54.40;;;;;;10250608;28;94328;-65
2023/05/24 08:38:52;;;;;;;;;;;20.40;54.30;;;;;;10249541;28;93622;-65
2023/05/24 08:43:58;;;;;;;;;;;20.40;54.40;;;;;;10250031;28;94476;-65
2023/05/24 08:49:02;;;;;;;;;;;20.40;54.40;;;;;;10249277;28;94503;-65
2023/05/24 08:54:04;;;;;;;;;;;20.30;54.20;;;;;;10250194;28;93924;-65
2023/05/24 08:59:06;;;;;;;;;;;20.30;54.30;;;;;;10232623;28;92583;-64
2023/05/24 09:04:07;;;;;;;;;;;20.30;54.20;;;;;;10249646;28;94046;-65
2023/05/24 09:09:10;;;;;;;;;;;20.30;54.40;;;;;;10248990;28;93439;-66
2023/05/24 09:14:13;;;;;;;;;;;20.30;54.40;;;;;;10231385;28;93584;-66
2023/05/24 09:19:15;;;;;;;;;;;20.30;54.30;;;;;;10246387;28;96100;-66
2023/05/24 09:24:16;;;;;;;;;;;20.30;54.30;;;;;;10231940;28;94516;-65
2023/05/24 09:29:22;;;;;;;;;;;20.30;54.40;;;;;;10247910;28;93652;-66
2023/05/24 09:34:24;;;;;;;;;;;20.30;54.20;;;;;;10248165;28;94529;-66
2023/05/24 09:39:26;;;;;;;;;;;20.30;54.20;;;;;;10248558;28;94892;-65
2023/05/24 09:44:27;;;;;;;;;;;20.30;54.20;;;;;;10247621;28;93563;-65
2023/05/24 09:49:30;;;;;;;;;;;20.30;54.20;;;;;;10247166;28;93774;-65
2023/05/24 09:54:31;;;;;;;;;;;20.20;54.20;;;;;;10230696;28;92848;-65
2023/05/24 09:59:33;;;;;;;;;;;20.20;54.20;;;;;;10248008;28;94178;-66
2023/05/24 10:04:35;;;;;;;;;;;20.20;54.30;;;;;;10246957;28;94640;-65
2023/05/24 10:09:37;;;;;;;;;;;20.20;54.30;;;;;;10245417;28;96764;-65
2023/05/24 10:14:39;;;;;;;;;;;20.20;54.30;;;;;;10246621;28;94642;-65
2023/05/24 10:19:41;;;;;;;;;;;20.10;54.10;;;;;;10246688;28;93467;-65
2023/05/24 10:24:45;;;;;;;;;;;20.10;54.30;;;;;;10246345;28;93504;-65
2023/05/24 10:30:06;;;;;;;;;;;20.10;54.20;;;;;;10246456;28;92804;-65
2023/05/24 10:35:13;;;;;;;;;;;20.10;54.40;;;;;;10246337;28;93442;-65
2023/05/24 10:40:19;;;;;;;;;;;20.10;54.40;;;;;;10246568;28;93690;-65
2023/05/24 10:45:24;;;;;;;;;;;20.10;54.40;;;;;;10247996;28;94067;-65
2023/05/24 10:50:27;;;;;;;;;;;20.10;54.30;;;;;;10246195;28;93827;-63
2023/05/24 10:55:32;;;;;;;;;;;20.10;54.40;;;;;;10246201;28;94500;-65
2023/05/24 11:00:41;;;;;;;;;;;20.10;54.40;;;;;;10243555;28;96362;-65
2023/05/24 11:05:45;;;;;;;;;;;20.00;54.40;;;;;;10227446;28;113838;-65
2023/05/24 11:10:47;;;;;;;;;;;20.10;54.60;;;;;;10247465;28;93543;-65
2023/05/24 11:15:50;;;;;;;;;;;20.00;54.30;;;;;;10253029;28;94514;-65
2023/05/24 11:20:51;;;;;;;;;;;20.00;54.40;;;;;;10252762;28;94643;-65
2023/05/24 11:25:53;;;;;;;;;;;20.10;54.50;;;;;;10252066;28;92548;-65
2023/05/24 11:30:56;;;;;;;;;;;20.10;54.60;;;;;;10252668;28;93717;-65
2023/05/24 11:35:58;;;;;;;;;;;20.10;54.50;;;;;;10252605;28;94065;-65
2023/05/24 11:41:00;;;;;;;;;;;20.10;54.60;;;;;;10252554;28;94512;-65
2023/05/24 11:46:02;;;;;;;;;;;20.10;54.50;;;;;;10234976;28;93681;-65
2023/05/24 11:51:04;;;;;;;;;;;20.10;54.40;;;;;;10249648;28;96341;-65
2023/05/24 11:56:06;;;;;;;;;;;20.10;54.40;;;;;;10234505;28;94638;-65
2023/05/24 12:01:21;;;;;;;;;;;20.10;54.40;;;;;;10251226;28;93716;-65
2023/05/24 12:06:23;;;;;;;;;;;20.10;54.40;;;;;;10251057;28;94500;-65
2023/05/24 12:11:25;;;;;;;;;;;20.10;54.50;;;;;;10250799;28;94498;-65
2023/05/24 12:16:30;;;;;;;;;;;20.10;54.50;;;;;;10251609;28;93508;-64
2023/05/24 12:21:34;;;;;;;;;;;20.20;54.30;;;;;;10249326;28;93595;-65
2023/05/24 12:26:36;;;;;;;;;;;20.20;54.30;;;;;;10233922;28;93519;-65
2023/05/24 12:31:38;;;;;;;;;;;20.20;54.30;;;;;;10249742;28;93469;-65
2023/05/24 12:36:42;;;;;;;;;;;20.20;54.40;;;;;;10250646;28;93621;-65
2023/05/24 12:41:43;;;;;;;;;;;20.20;54.40;;;;;;10248168;28;96889;-65
2023/05/24 12:46:45;;;;;;;;;;;20.20;54.40;;;;;;10249706;28;93528;-65
2023/05/24 12:51:47;;;;;;;;;;;20.20;54.20;;;;;;10249252;28;93461;-64
2023/05/24 12:56:50;;;;;;;;;;;20.20;54.20;;;;;;10250432;28;94567;-65
2023/05/24 13:01:56;;;;;;;;;;;20.30;54.30;;;;;;10249741;28;94615;-65
2023/05/24 13:06:57;;;;;;;;;;;20.20;54.20;;;;;;10248797;28;93653;-64
2023/05/24 13:12:00;;;;;;;;;;;20.20;54.10;;;;;;10248762;28;92602;-64
2023/05/24 13:17:02;;;;;;;;;;;20.20;54.10;;;;;;10250193;28;93821;-64
2023/05/24 13:22:03;;;;;;;;;;;20.30;54.20;;;;;;10248779;28;94593;-65
2023/05/24 13:27:05;;;;;;;;;;;20.30;54.40;;;;;;10248527;28;92799;-65
2023/05/24 13:32:07;;;;;;;;;;;20.30;54.30;;;;;;10228804;28;96445;-64
2023/05/24 13:37:09;;;;;;;;;;;20.30;54.40;;;;;;10248474;28;94520;-64
2023/05/24 13:42:11;;;;;;;;;;;20.30;54.40;;;;;;10248331;28;93453;-65
2023/05/24 13:47:15;;;;;;;;;;;20.30;54.20;;;;;;10230417;28;94361;-64
2023/05/24 13:52:36;;;;;;;;;;;20.30;54.20;;;;;;10248055;28;94536;-64
2023/05/24 13:57:38;;;;;;;;;;;20.30;54.50;;;;;;10229256;28;93661;-65
2023/05/24 14:02:52;;;;;;;;;;;20.30;54.30;;;;;;10247029;28;93541;-64
2023/05/24 14:07:55;;;;;;;;;;;20.30;54.20;;;;;;10247478;28;92882;-65
2023/05/24 14:12:57;;;;;;;;;;;20.30;54.10;;;;;;10247631;28;94432;-65
2023/05/24 14:18:18;;;;;;;;;;;20.30;54.20;;;;;;10232552;28;93727;-65
2023/05/24 14:23:20;;;;;;;;;;;20.30;54.20;;;;;;10244493;28;97019;-65
2023/05/24 14:28:22;;;;;;;;;;;20.30;54.20;;;;;;10246558;28;93707;-65
2023/05/24 14:33:23;;;;;;;;;;;20.20;55.20;;;;;;10246873;28;94640;-65
2023/05/24 14:38:26;;;;;;;;;;;20.20;54.20;;;;;;10247692;28;94640;-65
2023/05/24 14:43:28;;;;;;;;;;;20.20;54.20;;;;;;10228562;28;93186;-65
2023/05/24 14:48:30;;;;;;;;;;;20.20;54.20;;;;;;10252668;28;94843;-65
2023/05/24 14:53:31;;;;;;;;;;;20.20;54.20;;;;;;10252688;28;93022;-65
2023/05/24 14:58:33;;;;;;;;;;;20.20;54.20;;;;;;10237042;28;93708;-65
2023/05/24 15:03:35;;;;;;;;;;;20.20;54.30;;;;;;10252810;28;93567;-65
2023/05/24 15:08:37;;;;;;;;;;;20.20;54.30;;;;;;10252867;28;93410;-66
2023/05/24 15:13:39;;;;;;;;;;;20.20;54.20;;;;;;10249939;28;96231;-66
2023/05/24 15:18:41;;;;;;;;;;;20.10;54.20;;;;;;10252821;28;95001;-65
2023/05/24 15:23:43;;;;;;;;;;;20.10;54.20;;;;;;10252571;28;93919;-66
2023/05/24 15:28:45;;;;;;;;;;;20.10;54.40;;;;;;10252797;28;93741;-66
2023/05/24 15:33:46;;;;;;;;;;;20.10;54.40;;;;;;10251319;28;93784;-66
2023/05/24 15:38:48;;;;;;;;;;;20.10;54.50;;;;;;10252429;28;94936;-66
2023/05/24 15:43:50;;;;;;;;;;;20.10;54.60;;;;;;10233172;28;93814;-66
2023/05/24 15:48:52;;;;;;;;;;;20.10;54.60;;;;;;10248791;28;93379;-64
2023/05/24 15:53:54;;;;;;;;;;;20.10;54.90;;;;;;10231789;28;93523;-64
2023/05/24 15:58:56;;;;;;;;;;;20.20;55.10;;;;;;10232440;28;93593;-65
2023/05/24 16:03:58;;;;;;;;;;;20.20;55.00;;;;;;10245699;28;96392;-63
2023/05/24 16:09:00;;;;;;;;;;;20.20;52.60;;;;;;10245401;28;93353;-65
2023/05/24 16:14:02;;;;;;;;;;;20.20;52.80;;;;;;10247403;28;93714;-62
2023/05/24 16:19:04;;;;;;;;;;;20.30;54.90;;;;;;10248761;28;92622;-63
2023/05/24 16:24:06;;;;;;;;;;;20.30;55.50;;;;;;10248843;28;94641;-62
2023/05/24 16:29:09;;;;;;;;;;;20.30;57.10;;;;;;10250838;28;94722;-64
2023/05/24 16:34:11;;;;;;;;;;;20.40;57.80;;;;;;10250863;28;93413;-62
2023/05/24 16:39:12;;;;;;;;;;;20.50;56.90;;;;;;10250411;28;93709;-63
2023/05/24 16:44:16;;;;;;;;;;;20.60;57.90;;;;;;10249903;28;93725;-63
2023/05/24 16:49:18;;;;;;;;;;;20.70;58.00;;;;;;10249330;28;93921;-61
2023/05/24 16:54:20;;;;;;;;;;;20.70;57.40;;;;;;10247355;28;96139;-64
2023/05/24 16:59:22;;;;;;;;;;;20.70;57.20;;;;;;10248437;28;93127;-64
2023/05/24 17:04:23;;;;;;;;;;;20.70;57.10;;;;;;10249197;28;94485;-64
2023/05/24 17:09:25;;;;;;;;;;;20.70;57.20;;;;;;10248343;28;94676;-64
2023/05/24 17:14:27;;;;;;;;;;;20.70;57.40;;;;;;10248079;28;93532;-65
2023/05/24 17:19:29;;;;;;;;;;;20.70;57.50;;;;;;10248086;28;93833;-64
2023/05/24 17:24:31;;;;;;;;;;;20.70;57.80;;;;;;10248465;28;93668;-64
2023/05/24 17:29:33;;;;;;;;;;;20.70;57.80;;;;;;10248783;28;93295;-64
2023/05/24 17:34:35;;;;;;;;;;;20.70;57.60;;;;;;10248065;28;93030;-65
2023/05/24 17:39:37;;;;;;;;;;;20.60;57.50;;;;;;10248085;28;94611;-64
2023/05/24 17:44:39;;;;;;;;;;;20.60;57.60;;;;;;10227513;28;97107;-65
2023/05/24 17:49:41;;;;;;;;;;;20.60;57.60;;;;;;10248462;28;93515;-64
2023/05/24 17:54:43;;;;;;;;;;;20.60;57.70;;;;;;10247970;28;93879;-64
2023/05/24 17:59:45;;;;;;;;;;;20.60;57.90;;;;;;10247764;28;94781;-64
2023/05/24 18:04:46;;;;;;;;;;;20.60;57.90;;;;;;10229524;28;93593;-64
2023/05/24 18:09:49;;;;;;;;;;;20.60;57.90;;;;;;10229590;28;93476;-64
2023/05/24 18:14:50;;;;;;;;;;;20.60;57.90;;;;;;10248004;28;95539;-64
2023/05/24 18:19:52;;;;;;;;;;;20.60;58.00;;;;;;10248458;28;93699;-63
2023/05/24 18:24:54;;;;;;;;;;;20.60;57.90;;;;;;10254871;28;94003;-64
2023/05/24 18:29:55;;;;;;;;;;;20.70;57.90;;;;;;10237099;28;93526;-64
2023/05/24 18:34:57;;;;;;;;;;;20.70;57.90;;;;;;10233021;28;95992;-64
2023/05/24 18:39:59;;;;;;;;;;;20.70;58.00;;;;;;10253306;28;93080;-64
2023/05/24 18:45:01;;;;;;;;;;;20.70;58.00;;;;;;10254130;28;93730;-64
2023/05/24 18:50:03;;;;;;;;;;;20.60;58.00;;;;;;10252232;28;92926;-64
2023/05/24 18:55:09;;;;;;;;;;;20.60;58.00;;;;;;10252723;28;93686;-65
2023/05/24 19:00:11;;;;;;;;;;;20.50;57.90;;;;;;10252668;28;93173;-63
2023/05/24 19:05:13;;;;;;;;;;;20.50;58.90;;;;;;10252527;28;94658;-64
2023/05/24 19:10:15;;;;;;;;;;;20.50;58.00;;;;;;10253107;28;93715;-65
2023/05/24 19:15:16;;;;;;;;;;;20.50;57.80;;;;;;10253272;28;93893;-64
2023/05/24 19:20:18;;;;;;;;;;;20.50;58.00;;;;;;10253107;28;94677;-64
2023/05/24 19:25:20;;;;;;;;;;;20.40;58.00;;;;;;10250342;28;96850;-64
2023/05/24 19:30:22;;;;;;;;;;;20.50;58.10;;;;;;10233782;28;94690;-64
2023/05/24 19:35:23;;;;;;;;;;;20.50;58.10;;;;;;10252574;28;93628;-64
2023/05/24 19:40:25;;;;;;;;;;;20.40;58.00;;;;;;10252074;28;93796;-64
2023/05/24 19:45:27;;;;;;;;;;;20.40;58.00;;;;;;10234353;28;93557;-64
2023/05/24 19:50:29;;;;;;;;;;;20.40;58.00;;;;;;10251875;28;92661;-64
2023/05/24 19:55:32;;;;;;;;;;;20.40;58.10;;;;;;10251501;28;94614;-64
2023/05/24 20:00:33;;;;;;;;;;;20.40;58.10;;;;;;10251858;28;92761;-64
2023/05/24 20:05:35;;;;;;;;;;;20.40;58.10;;;;;;10250877;28;94589;-64
2023/05/24 20:10:37;;;;;;;;;;;20.30;58.10;;;;;;10250330;28;94404;-64
2023/05/24 20:15:39;;;;;;;;;;;20.30;58.10;;;;;;10247883;28;95950;-64
2023/05/24 20:20:41;;;;;;;;;;;20.30;58.10;;;;;;10232527;28;93842;-64
2023/05/24 20:25:43;;;;;;;;;;;20.30;58.10;;;;;;10232716;28;93415;-64
2023/05/24 20:30:45;;;;;;;;;;;20.30;58.00;;;;;;10250917;28;93226;-64
2023/05/24 20:35:48;;;;;;;;;;;20.30;58.10;;;;;;10248806;28;93620;-64
2023/05/24 20:40:50;;;;;;;;;;;20.30;58.10;;;;;;10250120;28;94545;-64
2023/05/24 20:45:52;;;;;;;;;;;20.30;58.10;;;;;;10248046;28;93861;-65
2023/05/24 20:50:54;;;;;;;;;;;20.30;58.10;;;;;;10249839;28;92869;-65
2023/05/24 20:55:56;;;;;;;;;;;20.30;58.10;;;;;;10248611;28;92757;-66
2023/05/24 21:00:58;;;;;;;;;;;20.20;58.00;;;;;;10249635;28;92514;-66
2023/05/24 21:05:59;;;;;;;;;;;20.20;57.80;;;;;;10246105;28;96042;-66
2023/05/24 21:11:01;;;;;;;;;;;20.20;57.80;;;;;;10249708;28;94424;-66
2023/05/24 21:16:03;;;;;;;;;;;20.20;57.70;;;;;;10247814;28;93495;-66
2023/05/24 21:21:05;;;;;;;;;;;20.20;57.70;;;;;;10248562;28;92822;-66
2023/05/24 21:26:07;;;;;;;;;;;20.10;57.70;;;;;;10248979;28;95129;-67
2023/05/24 21:31:09;;;;;;;;;;;20.10;57.60;;;;;;10248626;28;94506;-67
2023/05/24 21:36:11;;;;;;;;;;;20.10;57.60;;;;;;10248061;28;93463;-67
2023/05/24 21:41:12;;;;;;;;;;;20.10;57.60;;;;;;10248502;28;94099;-67
2023/05/24 21:46:14;;;;;;;;;;;20.10;57.40;;;;;;10248008;28;93650;-67
2023/05/24 21:51:16;;;;;;;;;;;20.10;57.40;;;;;;10229541;28;93756;-66
2023/05/24 21:56:18;;;;;;;;;;;20.10;57.30;;;;;;10245198;28;95938;-66
2023/05/24 22:01:20;;;;;;;;;;;20.10;57.20;;;;;;10247551;28;93562;-66
2023/05/24 22:06:22;;;;;;;;;;;20.10;57.20;;;;;;10246232;28;94487;-66
2023/05/24 22:11:24;;;;;;;;;;;20.00;57.10;;;;;;10247683;28;93320;-66
2023/05/24 22:16:25;;;;;;;;;;;20.10;57.20;;;;;;10246976;28;94678;-66
2023/05/24 22:21:32;;;;;;;;;;;20.00;57.10;;;;;;10247189;28;93359;-66
2023/05/24 22:26:34;;;;;;;;;;;20.10;57.20;;;;;;10246484;28;93462;-64
2023/05/24 22:31:36;;;;;;;;;;;20.10;57.20;;;;;;10248001;28;93879;-66
2023/05/24 22:36:38;;;;;;;;;;;20.10;57.20;;;;;;10245979;28;94219;-66
2023/05/24 22:41:40;;;;;;;;;;;20.10;57.20;;;;;;10229975;28;94798;-66
2023/05/24 22:46:42;;;;;;;;;;;20.00;57.10;;;;;;10243646;28;95513;-66
2023/05/24 22:51:49;;;;;;;;;;;20.00;57.10;;;;;;10246302;28;94391;-66
2023/05/24 22:56:51;;;;;;;;;;;20.00;57.10;;;;;;10246325;28;92949;-66
2023/05/24 23:01:57;;;;;;;;;;;20.00;57.10;;;;;;10246361;28;93530;-66
2023/05/24 23:07:00;;;;;;;;;;;20.00;57.20;;;;;;10247188;28;93682;-66
2023/05/24 23:12:06;;;;;;;;;;;19.90;57.10;;;;;;10253403;28;94466;-67
2023/05/24 23:17:09;;;;;;;;;;;19.90;57.10;;;;;;10252182;28;94445;-66
2023/05/24 23:22:17;;;;;;;;;;;19.90;57.10;;;;;;10254030;28;92624;-67
2023/05/24 23:27:18;;;;;;;;;;;19.90;57.10;;;;;;10252505;28;93610;-66
2023/05/24 23:32:20;;;;;;;;;;;19.90;57.10;;;;;;10234204;28;93661;-67
2023/05/24 23:37:22;;;;;;;;;;;19.90;57.20;;;;;;10250123;28;97149;-66
2023/05/24 23:42:25;;;;;;;;;;;19.90;57.20;;;;;;10234446;28;93461;-64
2023/05/24 23:47:26;;;;;;;;;;;19.80;57.10;;;;;;10251892;28;93507;-65
2023/05/24 23:52:28;;;;;;;;;;;19.80;57.10;;;;;;10251663;28;93659;-64
2023/05/24 23:57:30;;;;;;;;;;;19.80;57.10;;;;;;10250110;28;93693;-65
